createdAt,value
2019-02-19T00:01:51.478Z,71.91
2019-02-19T00:04:31.398Z,71.68
2019-02-19T00:07:04.440Z,71.99
2019-02-19T00:09:34.732Z,71.06
2019-02-19T00:12:05.003Z,69.48
2019-02-19T00:14:37.305Z,68.67
2019-02-19T00:17:07.581Z,67.28
2019-02-19T00:19:57.285Z,65.27
2019-02-19T00:22:48.667Z,65.86
2019-02-19T00:25:18.997Z,66.42
2019-02-19T00:28:02.398Z,67.22
2019-02-19T00:30:44.842Z,67.63
2019-02-19T00:36:08.715Z,69.61
2019-02-19T00:38:38.666Z,66.82
2019-02-19T00:41:21.636Z,68.25
2019-02-19T00:44:04.000Z,65.87
2019-02-19T00:46:34.632Z,68.02
2019-02-19T00:49:05.357Z,68.02
2019-02-19T00:51:48.023Z,65.82
2019-02-19T00:54:31.917Z,62.83
2019-02-19T00:57:02.122Z,64.44
2019-02-19T00:59:32.771Z,62.63
2019-02-19T01:02:15.009Z,62.00
2019-02-19T01:04:57.430Z,58.81
2019-02-19T01:07:28.037Z,59.65
2019-02-19T01:09:59.939Z,57.66
2019-02-19T01:12:41.484Z,58.92
2019-02-19T01:15:11.758Z,59.64
2019-02-19T01:17:43.080Z,61.33
2019-02-19T01:20:24.684Z,62.05
2019-02-19T01:23:07.007Z,62.82
2019-02-19T01:25:37.257Z,64.05
2019-02-19T01:28:07.471Z,65.00
2019-02-19T01:30:57.039Z,65.81
2019-02-19T01:33:27.711Z,66.42
2019-02-19T01:35:59.917Z,67.17
2019-02-19T01:41:30.831Z,67.40
2019-02-19T01:44:01.139Z,67.36
2019-02-19T01:46:52.134Z,67.33
2019-02-19T01:49:22.377Z,66.61
2019-02-19T01:51:54.956Z,66.63
2019-02-19T01:54:36.586Z,66.39
2019-02-19T01:57:07.118Z,66.54
2019-02-19T01:59:37.659Z,66.91
2019-02-19T02:05:30.273Z,62.26
2019-02-19T02:08:00.604Z,60.07
2019-02-19T02:10:30.894Z,59.25
2019-02-19T02:13:13.150Z,59.57
2019-02-19T02:15:55.359Z,58.55
2019-02-19T02:18:25.608Z,59.02
2019-02-19T02:21:06.810Z,59.70
2019-02-19T02:23:49.308Z,58.26
2019-02-19T02:26:19.654Z,56.98
2019-02-19T02:29:28.312Z,54.99
2019-02-19T02:32:00.885Z,53.63
2019-02-19T02:34:33.638Z,52.79
2019-02-19T02:37:03.932Z,52.64
2019-02-19T02:39:53.765Z,52.54
2019-02-19T02:42:24.498Z,52.71
2019-02-19T02:45:33.581Z,51.87
2019-02-19T02:48:43.330Z,52.93
2019-02-19T02:51:32.440Z,52.69
2019-02-19T02:54:17.686Z,53.03
2019-02-19T02:56:48.073Z,53.35
2019-02-19T02:59:29.616Z,53.46
2019-02-19T03:05:22.113Z,53.69
2019-02-19T03:13:27.430Z,54.38
2019-02-19T03:16:02.716Z,55.24
2019-02-19T03:19:10.684Z,55.15
2019-02-19T03:21:40.932Z,55.12
2019-02-19T03:27:25.716Z,55.75
2019-02-19T03:29:56.122Z,56.27
2019-02-19T03:32:26.365Z,56.85
2019-02-19T03:35:15.983Z,57.43
2019-02-19T03:37:46.340Z,58.17
2019-02-19T03:40:18.304Z,58.81
2019-02-19T03:42:59.846Z,59.76
2019-02-19T03:45:30.114Z,59.96
2019-02-19T03:48:00.359Z,60.23
2019-02-19T03:50:42.818Z,60.20
2019-02-19T03:53:26.813Z,59.74
2019-02-19T03:55:57.040Z,59.64
2019-02-19T03:58:27.254Z,59.99
2019-02-19T04:01:09.217Z,59.90
2019-02-19T04:03:51.262Z,59.85
2019-02-19T04:06:21.949Z,60.16
2019-02-19T04:08:54.176Z,61.25
2019-02-19T04:11:36.065Z,61.63
2019-02-19T04:14:18.296Z,62.02
2019-02-19T04:16:49.398Z,62.52
2019-02-19T04:19:19.644Z,62.06
2019-02-19T04:22:10.239Z,62.00
2019-02-19T04:24:40.542Z,62.31
2019-02-19T04:27:10.764Z,62.63
2019-02-19T04:29:42.716Z,61.99
2019-02-19T04:32:13.378Z,62.07
2019-02-19T04:34:43.667Z,61.80
2019-02-19T04:37:26.041Z,62.11
2019-02-19T04:40:09.768Z,62.27
2019-02-19T04:42:40.110Z,62.41
2019-02-19T04:45:40.863Z,62.28
2019-02-19T04:48:22.416Z,61.97
2019-02-19T04:54:06.216Z,61.97
2019-02-19T04:56:37.094Z,62.06
2019-02-19T04:59:07.376Z,62.53
2019-02-19T05:01:37.694Z,62.67
2019-02-19T05:04:27.429Z,63.10
2019-02-19T05:06:57.708Z,63.29
2019-02-19T05:12:41.500Z,64.21
2019-02-19T05:18:13.185Z,65.13
2019-02-19T05:20:55.654Z,65.19
2019-02-19T05:23:26.026Z,65.17
2019-02-19T05:26:08.889Z,65.63
2019-02-19T05:28:39.193Z,65.65
2019-02-19T05:31:09.524Z,65.93
2019-02-19T05:33:51.274Z,65.76
2019-02-19T05:36:33.752Z,65.98
2019-02-19T05:41:59.775Z,66.30
2019-02-19T05:44:42.124Z,66.56
2019-02-19T05:47:12.470Z,67.01
2019-02-19T05:49:42.763Z,67.48
2019-02-19T05:52:33.295Z,67.07
2019-02-19T05:55:03.685Z,66.71
2019-02-19T05:57:53.024Z,66.67
2019-02-19T06:00:24.979Z,67.29
2019-02-19T06:02:55.293Z,67.67
2019-02-19T06:08:17.134Z,67.64
2019-02-19T06:10:48.529Z,67.91
2019-02-19T06:13:18.771Z,67.89
2019-02-19T06:16:08.447Z,68.11
2019-02-19T06:18:38.814Z,68.24
2019-02-19T06:21:09.530Z,67.96
2019-02-19T06:23:39.882Z,67.91
2019-02-19T06:26:21.621Z,67.63
2019-02-19T06:29:03.168Z,67.77
2019-02-19T06:31:33.379Z,67.73
2019-02-19T06:34:03.661Z,67.52
2019-02-19T06:37:06.269Z,67.41
2019-02-19T06:42:18.853Z,66.99
2019-02-19T06:45:08.145Z,66.89
2019-02-19T06:47:39.763Z,66.47
2019-02-19T06:50:10.044Z,65.87
2019-02-19T06:52:46.779Z,65.79
2019-02-19T06:55:17.015Z,65.59
2019-02-19T06:57:59.193Z,65.72
2019-02-19T07:00:42.453Z,65.57
2019-02-19T07:06:18.401Z,65.23
2019-02-19T07:09:03.908Z,64.87
2019-02-19T07:11:35.779Z,65.06
2019-02-19T07:17:15.495Z,65.09
2019-02-19T07:20:11.262Z,65.33
2019-02-19T07:22:44.751Z,65.49
2019-02-19T07:25:15.023Z,65.01
2019-02-19T07:27:56.559Z,64.80
2019-02-19T07:30:39.304Z,64.46
2019-02-19T07:33:11.569Z,64.56
2019-02-19T07:36:16.015Z,63.99
2019-02-19T07:38:42.870Z,64.27
2019-02-19T07:41:13.149Z,64.26
2019-02-19T07:43:54.830Z,63.70
2019-02-19T07:46:37.211Z,64.31
2019-02-19T07:49:26.862Z,64.31
2019-02-19T07:51:57.228Z,63.67
2019-02-19T07:54:40.063Z,63.20
2019-02-19T07:57:31.098Z,62.72
2019-02-19T08:00:04.001Z,63.04
2019-02-19T08:02:35.903Z,62.39
2019-02-19T08:05:06.255Z,61.71
2019-02-19T08:07:36.560Z,61.54
2019-02-19T08:10:19.300Z,61.44
2019-02-19T08:13:01.280Z,61.19
2019-02-19T08:15:31.967Z,60.80
2019-02-19T08:18:02.256Z,61.04
2019-02-19T08:20:51.935Z,60.88
2019-02-19T08:23:41.359Z,61.24
2019-02-19T08:26:30.986Z,61.18
2019-02-19T08:29:11.353Z,61.03
2019-02-19T08:31:58.284Z,60.34
2019-02-19T08:40:00.545Z,60.59
2019-02-19T08:42:49.948Z,60.06
2019-02-19T08:45:39.323Z,59.67
2019-02-19T08:48:09.689Z,60.67
2019-02-19T08:50:39.895Z,59.15
2019-02-19T08:53:24.807Z,59.52
2019-02-19T08:56:07.388Z,58.80
2019-02-19T09:04:25.130Z,58.15
2019-02-19T09:10:22.443Z,56.95
2019-02-19T09:12:49.110Z,56.70
2019-02-19T09:15:38.539Z,56.76
2019-02-19T09:18:08.908Z,55.93
2019-02-19T09:23:28.532Z,55.28
2019-02-19T09:25:58.842Z,55.19
2019-02-19T09:32:01.825Z,56.47
2019-02-19T09:34:32.064Z,55.51
2019-02-19T09:37:03.970Z,56.21
2019-02-19T09:40:04.965Z,55.97
2019-02-19T09:45:50.462Z,57.62
2019-02-19T09:48:21.041Z,58.23
2019-02-19T09:50:51.322Z,57.37
2019-02-19T09:53:40.946Z,57.78
2019-02-19T09:56:11.417Z,58.04
2019-02-19T10:01:44.857Z,58.87
2019-02-19T10:10:06.386Z,59.58
2019-02-19T10:12:37.984Z,59.69
2019-02-19T10:15:30.506Z,59.25
2019-02-19T10:18:39.053Z,59.10
2019-02-19T10:27:00.853Z,59.09
2019-02-19T10:29:42.917Z,59.64
2019-02-19T10:32:15.350Z,59.79
2019-02-19T10:38:09.173Z,60.72
2019-02-19T10:40:58.930Z,60.55
2019-02-19T10:49:36.003Z,60.63
2019-02-19T10:52:21.545Z,60.67
2019-02-19T10:54:55.029Z,60.82
2019-02-19T10:57:25.311Z,60.96
2019-02-19T11:00:10.783Z,60.84
2019-02-19T11:08:31.900Z,61.12
2019-02-19T11:11:02.223Z,61.46
2019-02-19T11:13:44.286Z,61.46
2019-02-19T11:16:26.849Z,61.40
2019-02-19T11:18:57.764Z,61.79
2019-02-19T11:21:47.439Z,61.58
2019-02-19T11:24:17.745Z,61.84
2019-02-19T11:26:47.948Z,62.46
2019-02-19T11:32:52.879Z,62.02
2019-02-19T11:35:23.159Z,62.00
2019-02-19T11:46:49.540Z,63.34
2019-02-19T11:55:18.451Z,63.71
2019-02-19T11:57:49.099Z,63.89
2019-02-19T12:06:36.088Z,64.21
2019-02-19T12:09:06.823Z,64.91
2019-02-19T12:12:19.816Z,65.09
2019-02-19T12:14:50.217Z,65.22
2019-02-19T12:17:32.007Z,65.25
2019-02-19T12:25:58.492Z,65.93
2019-02-19T12:37:22.147Z,67.79
2019-02-19T12:39:52.375Z,68.14
2019-02-19T12:48:40.062Z,68.85
2019-02-19T12:51:32.799Z,69.31
2019-02-19T13:01:17.327Z,70.80
2019-02-19T13:03:49.978Z,70.71
2019-02-19T13:12:11.283Z,71.62
2019-02-19T13:17:47.705Z,71.74
2019-02-19T13:23:39.908Z,74.73
2019-02-19T13:26:24.328Z,74.96
2019-02-19T13:29:25.968Z,76.80
2019-02-19T13:32:26.041Z,78.22
2019-02-19T13:37:50.956Z,79.61
2019-02-19T13:43:30.860Z,82.13
2019-02-19T13:46:16.183Z,82.70
2019-02-19T13:48:47.119Z,83.46
2019-02-19T13:51:19.377Z,83.99
2019-02-19T13:54:20.450Z,84.55
2019-02-19T13:57:03.556Z,85.42
2019-02-19T13:59:53.899Z,85.87
2019-02-19T14:02:35.427Z,86.82
2019-02-19T14:09:21.725Z,86.87
2019-02-19T14:24:14.720Z,87.38
2019-02-19T14:27:07.099Z,88.22
2019-02-19T14:33:50.131Z,88.27
2019-02-19T14:36:30.436Z,88.09
2019-02-19T14:46:15.043Z,88.08
2019-02-19T14:49:19.430Z,88.83
2019-02-19T14:58:01.984Z,88.79
2019-02-19T15:07:43.982Z,87.82
2019-02-19T15:10:35.022Z,87.71
2019-02-19T15:22:57.542Z,86.49
2019-02-19T15:26:18.643Z,86.88
2019-02-19T15:32:07.785Z,86.93
2019-02-19T15:34:56.965Z,86.89
2019-02-19T15:37:46.154Z,87.09
2019-02-19T15:40:30.859Z,87.39
2019-02-19T15:46:22.942Z,87.86
2019-02-19T15:49:12.121Z,87.65
2019-02-19T15:52:03.268Z,88.04
2019-02-19T15:55:11.565Z,88.08
2019-02-19T15:58:12.706Z,88.04
2019-02-19T16:01:13.827Z,88.18
2019-02-19T16:04:03.130Z,88.67
2019-02-19T16:06:54.131Z,88.57
2019-02-19T16:09:43.786Z,88.62
2019-02-19T16:12:33.276Z,89.20
2019-02-19T16:15:23.364Z,89.48
2019-02-19T16:18:12.857Z,89.51
2019-02-19T16:21:02.081Z,89.78
2019-02-19T16:23:45.262Z,89.64
2019-02-19T16:26:36.537Z,90.09
2019-02-19T16:29:25.939Z,90.12
2019-02-19T16:35:19.630Z,90.53
2019-02-19T16:38:27.916Z,91.13
2019-02-19T16:41:04.911Z,90.82
2019-02-19T16:44:18.936Z,91.69
2019-02-19T16:47:27.483Z,92.07
2019-02-19T16:50:22.872Z,92.09
2019-02-19T16:53:12.419Z,91.62
2019-02-19T16:56:04.151Z,91.35
2019-02-19T16:58:53.748Z,92.54
2019-02-19T17:01:55.219Z,92.72
2019-02-19T17:04:26.863Z,92.79
2019-02-19T17:07:15.996Z,93.08
2019-02-19T17:10:09.890Z,92.96
2019-02-19T17:12:53.320Z,93.37
2019-02-19T17:15:52.203Z,92.73
2019-02-19T17:19:07.246Z,93.03
2019-02-19T17:25:01.189Z,93.64
2019-02-19T17:30:46.002Z,93.80
2019-02-19T17:33:37.133Z,93.93
2019-02-19T17:36:31.702Z,93.60
2019-02-19T17:39:13.109Z,94.67
2019-02-19T17:45:26.108Z,94.62
2019-02-19T17:48:07.515Z,94.83
2019-02-19T17:51:16.019Z,94.90
2019-02-19T17:54:20.534Z,94.65
2019-02-19T18:01:12.488Z,94.35
2019-02-19T18:07:20.901Z,95.67
2019-02-19T18:10:10.473Z,96.81
2019-02-19T18:13:40.524Z,96.80
2019-02-19T18:16:49.444Z,95.67
2019-02-19T18:22:49.999Z,96.72
2019-02-19T18:28:26.237Z,96.98
2019-02-19T18:31:30.364Z,97.66
2019-02-19T18:34:15.020Z,97.10
2019-02-19T18:36:56.564Z,97.55
2019-02-19T18:39:47.309Z,97.22
2019-02-19T18:42:32.748Z,97.42
2019-02-19T18:45:06.035Z,98.27
2019-02-19T18:47:47.207Z,97.25
2019-02-19T18:50:20.356Z,97.15
2019-02-19T18:53:01.819Z,97.61
2019-02-19T18:56:04.659Z,98.59
2019-02-19T19:02:19.803Z,98.99
2019-02-19T19:05:33.776Z,98.17
2019-02-19T19:08:19.188Z,98.87
2019-02-19T19:10:49.445Z,98.87
2019-02-19T19:22:09.720Z,100.00
2019-02-19T19:24:59.219Z,100.00
2019-02-19T19:37:08.645Z,99.32
2019-02-19T19:43:07.069Z,99.91
2019-02-19T19:45:50.494Z,99.58
2019-02-19T19:48:26.469Z,98.61
2019-02-19T19:51:17.103Z,99.27
2019-02-19T19:54:02.874Z,99.45
2019-02-19T20:02:43.227Z,99.16
2019-02-19T20:09:14.317Z,99.61
2019-02-19T20:11:44.998Z,100.00
2019-02-19T20:14:36.174Z,99.78
2019-02-19T20:20:09.896Z,99.31
2019-02-19T20:22:59.311Z,99.39
2019-02-19T20:25:43.812Z,100.00
2019-02-19T20:28:42.331Z,100.00
2019-02-19T20:34:47.982Z,100.00
2019-02-19T20:37:13.420Z,100.00
2019-02-19T20:48:17.086Z,100.00
2019-02-19T20:51:06.812Z,100.00
2019-02-19T20:53:37.084Z,100.00
2019-02-19T20:56:10.350Z,100.00
2019-02-19T20:58:59.000Z,100.00
2019-02-19T21:01:50.387Z,100.00
2019-02-19T21:07:04.782Z,100.00
2019-02-19T21:09:43.385Z,100.00
2019-02-19T21:15:14.909Z,100.00
2019-02-19T21:18:06.224Z,100.00
2019-02-19T21:23:25.977Z,100.00
2019-02-19T21:26:07.965Z,100.00
2019-02-19T21:28:38.512Z,100.00
2019-02-19T21:31:08.853Z,100.00
2019-02-19T21:33:58.724Z,100.00
2019-02-19T21:36:29.126Z,100.00
2019-02-19T21:42:09.026Z,100.00
2019-02-19T21:44:46.269Z,100.00
2019-02-19T21:47:38.040Z,100.00
2019-02-19T21:50:09.066Z,100.00
2019-02-19T21:52:41.019Z,100.00
2019-02-19T21:55:26.717Z,100.00
2019-02-19T21:57:59.641Z,100.00
2019-02-19T22:00:48.744Z,100.00
2019-02-19T22:03:20.816Z,100.00
2019-02-19T22:05:51.256Z,100.00
2019-02-19T22:09:01.392Z,100.00
2019-02-19T22:11:33.307Z,100.00
2019-02-19T22:14:26.568Z,100.00
2019-02-19T22:17:02.828Z,100.00
2019-02-19T22:19:33.407Z,100.00
2019-02-19T22:22:25.510Z,100.00
2019-02-19T22:24:56.014Z,100.00
2019-02-19T22:27:59.082Z,100.00
2019-02-19T22:36:46.374Z,100.00
2019-02-19T22:39:16.784Z,100.00
2019-02-19T22:45:01.437Z,100.00
2019-02-19T22:50:43.710Z,100.00
2019-02-19T22:53:44.718Z,100.00
2019-02-19T22:56:33.962Z,100.00
2019-02-19T22:59:04.897Z,100.00
2019-02-19T23:04:35.855Z,100.00
2019-02-19T23:07:08.955Z,100.00
2019-02-19T23:09:57.474Z,100.00
2019-02-19T23:12:27.839Z,100.00
2019-02-19T23:14:58.254Z,100.00
2019-02-19T23:17:40.678Z,100.00
2019-02-19T23:20:22.689Z,100.00
2019-02-19T23:22:53.450Z,100.00
2019-02-19T23:25:42.851Z,100.00
2019-02-19T23:28:27.165Z,100.00
2019-02-19T23:31:08.789Z,100.00
2019-02-19T23:33:39.214Z,100.00
2019-02-19T23:38:59.379Z,100.00
2019-02-19T23:41:34.245Z,100.00
2019-02-19T23:44:24.155Z,100.00
2019-02-19T23:47:05.293Z,100.00
2019-02-19T23:49:47.969Z,100.00
2019-02-19T23:53:32.544Z,100.00
2019-02-19T23:55:56.999Z,100.00
2019-02-19T23:59:00.017Z,100.00
